Time;durP1;ratioP1;P1;durP2;ratioP2;P2;SDS_P1;SDS_P2;PMS_P1;PMS_P2;Temp;Humidity;BMP_temperature;BMP_pressure;BME280_temperature;BME280_humidity;BME280_pressure;Samples;Min_cycle;Max_cycle;Signal;HPM_P1;HPM_P2
2023/09/18 00:00:58;;;;;;;39.20;27.88;;;16.80;99.90;;;;;;4950243;28;20063;-72
2023/09/18 00:03:24;;;;;;;40.67;27.90;;;16.70;99.90;;;;;;4894058;28;243785;-72
2023/09/18 00:05:52;;;;;;;38.17;27.08;;;16.70;99.90;;;;;;4949496;28;20058;-71
2023/09/18 00:08:19;;;;;;;37.83;28.20;;;16.80;99.90;;;;;;4905385;28;224575;-71
2023/09/18 00:10:52;;;;;;;37.95;26.60;;;16.80;99.90;;;;;;4948561;29;20055;-72
2023/09/18 00:13:18;;;;;;;32.47;25.33;;;16.80;99.90;;;;;;4908997;28;20055;-72
2023/09/18 00:15:46;;;;;;;40.42;27.35;;;16.80;99.90;;;;;;4946057;28;20059;-72
2023/09/18 00:18:16;;;;;;;33.80;24.63;;;16.80;99.90;;;;;;4911760;28;20090;-72
2023/09/18 00:20:43;;;;;;;36.33;26.93;;;16.80;99.90;;;;;;4945412;28;20058;-71
2023/09/18 00:23:10;;;;;;;36.00;26.08;;;16.70;99.90;;;;;;4907038;28;177821;-71
2023/09/18 00:25:36;;;;;;;36.75;26.63;;;16.80;99.90;;;;;;4946327;28;20053;-71
2023/09/18 00:28:03;;;;;;;37.03;27.73;;;16.80;99.90;;;;;;4906789;28;173796;-71
2023/09/18 00:30:29;;;;;;;39.03;27.55;;;16.80;99.90;;;;;;4947083;28;20622;-72
2023/09/18 00:32:55;;;;;;;33.25;26.23;;;16.80;99.90;;;;;;4910739;28;232202;-71
2023/09/18 00:35:23;;;;;;;30.40;24.73;;;16.80;99.90;;;;;;4961194;28;20422;-72
2023/09/18 00:37:49;;;;;;;36.42;28.55;;;16.80;99.90;;;;;;4919440;28;20534;-72
2023/09/18 00:40:15;;;;;;;36.38;28.00;;;16.80;99.90;;;;;;4953355;28;20719;-70
2023/09/18 00:42:41;;;;;;;37.42;28.02;;;16.80;99.90;;;;;;4922368;28;20674;-71
2023/09/18 00:45:09;;;;;;;32.03;25.00;;;16.80;99.90;;;;;;4946503;28;157636;-72
2023/09/18 00:47:36;;;;;;;35.50;26.67;;;16.90;99.90;;;;;;4930540;28;20051;-69
2023/09/18 00:50:04;;;;;;;33.08;24.13;;;16.90;99.90;;;;;;4943789;28;250549;-72
2023/09/18 00:52:32;;;;;;;35.58;27.63;;;17.00;99.90;;;;;;4945322;28;20514;-70
2023/09/18 00:55:00;;;;;;;33.97;26.83;;;17.00;99.90;;;;;;4896696;28;233334;-71
2023/09/18 00:57:26;;;;;;;35.38;26.35;;;17.00;99.90;;;;;;4945604;28;20050;-72
2023/09/18 00:59:52;;;;;;;36.42;27.05;;;17.00;99.90;;;;;;4917605;28;216972;-72
2023/09/18 01:02:20;;;;;;;37.28;26.80;;;17.10;99.90;;;;;;4960033;28;20052;-71
2023/09/18 01:04:48;;;;;;;35.83;26.15;;;17.20;99.90;;;;;;4901737;28;244107;-72
2023/09/18 01:07:14;;;;;;;33.40;25.30;;;17.20;99.90;;;;;;4948780;28;20063;-72
2023/09/18 01:09:43;;;;;;;31.50;23.08;;;17.20;99.90;;;;;;4908585;28;20054;-71
2023/09/18 01:12:36;;;;;;;33.00;23.80;;;17.20;99.90;;;;;;4950997;28;20062;-71
2023/09/18 01:15:11;;;;;;;31.02;23.92;;;17.20;99.90;;;;;;4905083;28;88502;-71
2023/09/18 01:17:38;;;;;;;35.25;23.98;;;17.10;99.90;;;;;;4918081;28;20497;-71
2023/09/18 01:20:05;;;;;;;28.52;21.92;;;17.20;99.90;;;;;;4934335;28;57948;-71
2023/09/18 01:22:32;;;;;;;31.08;22.75;;;17.10;99.90;;;;;;4940503;28;20090;-72
2023/09/18 01:24:58;;;;;;;32.53;21.85;;;17.10;99.90;;;;;;4912072;28;205340;-71
2023/09/18 01:27:24;;;;;;;25.48;21.95;;;17.10;99.90;;;;;;4948330;28;20059;-73
2023/09/18 01:29:50;;;;;;;25.95;21.02;;;17.20;99.90;;;;;;4887506;28;177527;-71
2023/09/18 01:32:17;;;;;;;27.70;21.50;;;17.20;99.90;;;;;;4942742;28;20059;-71
2023/09/18 01:34:47;;;;;;;24.95;20.23;;;17.20;99.90;;;;;;4904022;28;96416;-71
2023/09/18 01:37:16;;;;;;;29.13;21.92;;;17.20;99.90;;;;;;4941476;28;20058;-71
2023/09/18 01:39:44;;;;;;;28.83;21.90;;;17.20;99.90;;;;;;4914165;28;167421;-70
2023/09/18 01:42:10;;;;;;;24.50;20.60;;;17.30;99.90;;;;;;4960299;28;20518;-71
2023/09/18 01:44:38;;;;;;;27.73;21.95;;;17.30;99.90;;;;;;4905515;28;82502;-71
2023/09/18 01:47:07;;;;;;;26.52;21.98;;;17.30;99.90;;;;;;4941159;28;20061;-71
2023/09/18 01:49:35;;;;;;;28.33;22.33;;;17.40;99.90;;;;;;4907216;28;59342;-72
2023/09/18 01:52:02;;;;;;;31.85;24.70;;;17.40;99.90;;;;;;4944869;28;20062;-71
2023/09/18 01:54:28;;;;;;;31.58;22.65;;;17.50;99.90;;;;;;4877553;28;135381;-71
2023/09/18 01:56:54;;;;;;;26.77;23.15;;;17.50;99.90;;;;;;4943895;28;20039;-71
2023/09/18 01:59:22;;;;;;;28.55;23.58;;;17.50;99.90;;;;;;4898013;28;130684;-71
2023/09/18 02:01:48;;;;;;;30.38;24.35;;;17.50;99.90;;;;;;4948894;28;20054;-71
2023/09/18 02:04:15;;;;;;;33.25;24.15;;;17.60;99.90;;;;;;4917363;28;90994;-71
2023/09/18 02:06:41;;;;;;;29.08;24.48;;;17.50;99.90;;;;;;4949717;28;20055;-71
2023/09/18 02:09:08;;;;;;;29.73;24.60;;;17.50;99.90;;;;;;4900402;28;252743;-72
2023/09/18 02:11:43;;;;;;;29.45;24.27;;;17.50;99.90;;;;;;4949174;28;20055;-72
2023/09/18 02:14:09;;;;;;;29.38;23.92;;;17.50;99.90;;;;;;4906344;28;20074;-72
2023/09/18 02:16:37;;;;;;;28.70;23.70;;;17.50;99.90;;;;;;4944946;28;20059;-71
2023/09/18 02:19:04;;;;;;;27.58;24.60;;;17.50;99.90;;;;;;4900683;28;153538;-72
2023/09/18 02:21:30;;;;;;;27.48;22.70;;;17.50;99.90;;;;;;4940530;28;20051;-72
2023/09/18 02:23:56;;;;;;;29.33;23.58;;;17.50;99.90;;;;;;4908913;28;220708;-72
2023/09/18 02:26:24;;;;;;;26.92;22.70;;;17.50;99.90;;;;;;4923363;29;20058;-71
2023/09/18 02:28:53;;;;;;;25.60;21.17;;;17.50;99.90;;;;;;4908934;28;213031;-71
2023/09/18 02:31:19;;;;;;;24.17;21.52;;;17.50;99.90;;;;;;4944685;28;20055;-71
2023/09/18 02:33:46;;;;;;;25.25;21.30;;;17.60;99.90;;;;;;4915458;28;50198;-72
2023/09/18 02:36:13;;;;;;;28.05;22.52;;;17.60;99.90;;;;;;4946879;28;20700;-72
2023/09/18 02:38:39;;;;;;;26.92;21.80;;;17.60;99.90;;;;;;4916813;28;20055;-72
2023/09/18 02:41:05;;;;;;;26.25;22.65;;;17.60;99.90;;;;;;4954868;28;20054;-72
2023/09/18 02:43:31;;;;;;;28.63;22.17;;;17.60;99.90;;;;;;4914786;28;20077;-72
2023/09/18 02:45:57;;;;;;;26.77;21.63;;;17.70;99.90;;;;;;4960889;28;20062;-71
2023/09/18 02:48:24;;;;;;;24.95;21.50;;;17.70;99.90;;;;;;4910296;28;20055;-72
2023/09/18 02:50:50;;;;;;;25.88;21.30;;;17.70;99.90;;;;;;4947169;28;20032;-71
2023/09/18 02:53:23;;;;;;;26.45;21.48;;;17.70;99.90;;;;;;4899292;28;248105;-71
2023/09/18 02:55:51;;;;;;;27.25;21.33;;;17.60;99.90;;;;;;4955217;28;20336;-72
2023/09/18 02:58:19;;;;;;;27.63;21.48;;;17.70;99.90;;;;;;4913111;28;20063;-72
2023/09/18 03:00:50;;;;;;;25.70;20.60;;;17.60;99.90;;;;;;4953104;28;20063;-72
2023/09/18 03:03:16;;;;;;;;;;;17.60;99.90;;;;;;4908673;28;20094;-71
2023/09/18 03:05:43;;;;;;;25.02;20.27;;;17.60;99.90;;;;;;4945284;28;19926;-72
2023/09/18 03:08:11;;;;;;;26.25;20.65;;;17.60;99.90;;;;;;4914899;28;20105;-72
2023/09/18 03:10:41;;;;;;;26.13;21.52;;;17.60;99.90;;;;;;4958195;28;20070;-71
2023/09/18 03:13:09;;;;;;;25.58;20.63;;;17.60;99.90;;;;;;4907745;28;20063;-72
2023/09/18 03:15:35;;;;;;;26.02;19.70;;;17.60;99.90;;;;;;4940017;29;20040;-72
2023/09/18 03:18:03;;;;;;;24.10;19.23;;;17.60;99.90;;;;;;4911687;28;20058;-71
2023/09/18 03:20:30;;;;;;;24.27;19.17;;;17.60;99.90;;;;;;4960586;28;20039;-71
2023/09/18 03:22:58;;;;;;;23.80;19.05;;;17.60;99.90;;;;;;4914035;28;21295;-71
2023/09/18 03:25:24;;;;;;;22.05;18.67;;;17.60;99.90;;;;;;4935958;28;20055;-71
2023/09/18 03:27:52;;;;;;;22.48;19.10;;;17.60;99.90;;;;;;4912970;28;20048;-71
2023/09/18 03:30:20;;;;;;;26.13;19.05;;;17.60;99.90;;;;;;4960631;28;20505;-71
2023/09/18 03:32:48;;;;;;;24.42;18.85;;;17.60;99.90;;;;;;4912753;28;20062;-71
2023/09/18 03:35:18;;;;;;;22.98;17.83;;;17.60;99.90;;;;;;4949953;28;20050;-72
2023/09/18 03:37:48;;;;;;;24.27;18.02;;;17.60;99.90;;;;;;4911856;28;20059;-71
2023/09/18 03:40:15;;;;;;;24.98;17.75;;;17.60;99.90;;;;;;4947503;28;20062;-72
2023/09/18 03:42:41;;;;;;;22.80;17.73;;;17.70;99.90;;;;;;4912403;28;20691;-72
2023/09/18 03:45:08;;;;;;;23.50;17.45;;;17.70;99.90;;;;;;4962086;28;20062;-72
2023/09/18 03:47:35;;;;;;;22.08;17.10;;;17.70;99.90;;;;;;4929569;28;20059;-72
2023/09/18 03:50:06;;;;;;;21.02;15.85;;;17.70;99.90;;;;;;4926466;28;20051;-72
2023/09/18 03:52:32;;;;;;;23.90;17.08;;;17.70;99.90;;;;;;4939050;28;20058;-72
2023/09/18 03:54:58;;;;;;;24.48;16.95;;;17.80;99.90;;;;;;4907005;28;123182;-72
2023/09/18 03:57:24;;;;;;;21.15;16.50;;;17.70;99.90;;;;;;4948471;28;20063;-72
2023/09/18 03:59:50;;;;;;;21.30;16.00;;;17.80;99.90;;;;;;4907851;28;20047;-72
2023/09/18 04:02:16;;;;;;;20.63;15.95;;;17.80;99.90;;;;;;4951152;28;20039;-72
2023/09/18 04:04:43;;;;;;;19.80;15.63;;;17.80;99.90;;;;;;4925079;28;20043;-72
2023/09/18 04:07:09;;;;;;;20.92;14.50;;;17.80;99.90;;;;;;4947314;28;20505;-72
2023/09/18 04:09:37;;;;;;;21.30;15.25;;;17.90;99.90;;;;;;4926789;28;20708;-72
2023/09/18 04:12:07;;;;;;;26.63;15.05;;;17.90;99.90;;;;;;4949384;28;20146;-72
2023/09/18 04:14:33;;;;;;;18.58;14.73;;;17.80;99.90;;;;;;4912814;28;20055;-72
2023/09/18 04:17:00;;;;;;;20.67;14.32;;;17.80;99.90;;;;;;4949440;28;20062;-72
2023/09/18 04:19:26;;;;;;;20.98;13.90;;;17.90;99.90;;;;;;4922535;28;20816;-72
2023/09/18 04:21:53;;;;;;;18.73;14.38;;;17.90;99.90;;;;;;4948304;28;20534;-72
2023/09/18 04:24:19;;;;;;;18.15;12.80;;;17.80;99.90;;;;;;4909385;28;20454;-72
2023/09/18 04:26:45;;;;;;;18.08;13.40;;;17.80;99.90;;;;;;4952926;28;20517;-72
2023/09/18 04:29:11;;;;;;;19.92;12.25;;;17.90;99.90;;;;;;4927980;28;20057;-71
2023/09/18 04:31:40;;;;;;;17.80;12.20;;;17.90;99.90;;;;;;4947694;28;20059;-72
2023/09/18 04:34:06;;;;;;;20.63;12.63;;;17.90;99.90;;;;;;4912533;28;20580;-72
2023/09/18 04:36:32;;;;;;;18.27;12.43;;;17.90;99.90;;;;;;4947093;28;20059;-72
2023/09/18 04:38:58;;;;;;;18.73;12.27;;;17.90;99.90;;;;;;4906165;28;20398;-71
2023/09/18 04:41:24;;;;;;;17.02;11.88;;;17.90;99.90;;;;;;4949343;28;20051;-72
2023/09/18 04:43:50;;;;;;;19.63;11.95;;;18.00;99.90;;;;;;4901253;28;20059;-72
2023/09/18 04:46:17;;;;;;;18.30;12.27;;;18.00;99.90;;;;;;4944963;28;20063;-72
2023/09/18 04:48:43;;;;;;;18.38;12.00;;;18.10;99.90;;;;;;4923981;28;20058;-72
2023/09/18 04:51:09;;;;;;;16.60;12.00;;;18.00;99.90;;;;;;4961789;28;20047;-72
2023/09/18 04:53:35;;;;;;;16.02;11.00;;;18.10;99.90;;;;;;4905306;28;51400;-72
2023/09/18 04:56:01;;;;;;;15.43;11.35;;;18.00;99.90;;;;;;4953691;28;21795;-72
2023/09/18 04:58:27;;;;;;;19.90;11.68;;;18.00;99.90;;;;;;4915827;28;20059;-72
2023/09/18 05:00:56;;;;;;;16.58;11.00;;;18.10;99.90;;;;;;4959052;28;20058;-72
2023/09/18 05:03:23;;;;;;;18.73;11.80;;;18.10;99.90;;;;;;4909362;28;20055;-72
2023/09/18 05:05:49;;;;;;;15.48;11.40;;;18.10;99.90;;;;;;4947360;28;20058;-72
2023/09/18 05:08:15;;;;;;;18.33;11.88;;;18.10;99.90;;;;;;4913373;28;20043;-71
2023/09/18 05:10:42;;;;;;;19.52;11.88;;;18.10;99.90;;;;;;4957250;28;20059;-71
2023/09/18 05:13:08;;;;;;;19.80;11.40;;;18.10;99.90;;;;;;4910034;28;20050;-71
2023/09/18 05:15:34;;;;;;;18.83;10.75;;;18.10;99.90;;;;;;4946571;29;20066;-71
2023/09/18 05:18:01;;;;;;;17.23;10.85;;;18.10;99.90;;;;;;4907261;28;20055;-71
2023/09/18 05:20:29;;;;;;;15.75;10.68;;;18.20;99.90;;;;;;4934236;29;20059;-73
2023/09/18 05:22:56;;;;;;;17.55;10.95;;;18.20;99.90;;;;;;4910054;28;20063;-72
2023/09/18 05:25:27;;;;;;;15.50;10.23;;;18.20;99.90;;;;;;4944985;28;20051;-72
2023/09/18 05:27:57;;;;;;;;;;;18.20;99.90;;;;;;4908278;28;20054;-72
2023/09/18 05:30:28;;;;;;;19.27;10.75;;;18.20;99.90;;;;;;4934544;28;19922;-72
2023/09/18 05:32:55;;;;;;;17.88;11.20;;;18.20;99.90;;;;;;4911710;28;20066;-73
2023/09/18 05:35:22;;;;;;;18.30;10.35;;;18.20;99.90;;;;;;4952164;28;20290;-72
2023/09/18 05:37:54;;;;;;;15.45;9.73;;;18.20;99.90;;;;;;4908704;28;20074;-71
2023/09/18 05:40:20;;;;;;;19.00;10.73;;;18.20;99.90;;;;;;4944235;28;20066;-72
2023/09/18 05:42:46;;;;;;;18.65;9.50;;;18.30;99.90;;;;;;4909602;28;20055;-72
2023/09/18 05:45:17;;;;;;;14.02;9.90;;;18.30;99.90;;;;;;4957945;28;20074;-72
2023/09/18 05:47:43;;;;;;;17.05;9.85;;;18.30;99.90;;;;;;4911159;28;20035;-72
2023/09/18 05:50:14;;;;;;;17.25;9.40;;;18.30;99.90;;;;;;4949681;28;20085;-72
2023/09/18 05:52:41;;;;;;;14.82;8.93;;;18.30;99.90;;;;;;4901032;28;57470;-71
2023/09/18 05:55:08;;;;;;;15.48;8.95;;;18.40;99.90;;;;;;4946979;28;20410;-72
2023/09/18 05:57:34;;;;;;;14.07;8.85;;;18.40;99.90;;;;;;4931527;28;20637;-71
2023/09/18 06:00:01;;;;;;;19.17;8.82;;;18.40;99.90;;;;;;4930368;28;20062;-72
2023/09/18 06:02:27;;;;;;;13.68;8.38;;;18.40;99.90;;;;;;4948088;28;20043;-72
2023/09/18 06:04:57;;;;;;;16.55;9.10;;;18.40;99.90;;;;;;4896896;28;20058;-72
2023/09/18 06:07:27;;;;;;;17.52;9.05;;;18.50;99.90;;;;;;4948054;28;20738;-72
2023/09/18 06:09:53;;;;;;;14.35;8.82;;;18.50;99.90;;;;;;4927803;28;20098;-70
2023/09/18 06:12:20;;;;;;;14.25;8.18;;;18.50;99.90;;;;;;4950977;28;20055;-72
2023/09/18 06:14:48;;;;;;;16.80;9.18;;;18.50;99.90;;;;;;4925471;28;20070;-71
2023/09/18 06:17:14;;;;;;;14.90;8.02;;;18.60;99.90;;;;;;4950499;28;20058;-71
2023/09/18 06:19:41;;;;;;;14.90;8.50;;;18.70;99.90;;;;;;4926708;28;20051;-70
2023/09/18 06:22:07;;;;;;;17.90;9.15;;;18.70;99.90;;;;;;4948416;28;20047;-71
2023/09/18 06:24:34;;;;;;;16.40;8.60;;;18.80;99.90;;;;;;4926678;28;20517;-71
2023/09/18 06:27:00;;;;;;;14.90;8.80;;;18.80;99.90;;;;;;4947356;28;20067;-72
2023/09/18 06:29:27;;;;;;;12.65;8.05;;;18.80;99.90;;;;;;4923247;28;20089;-71
2023/09/18 06:31:53;;;;;;;16.27;8.52;;;18.90;99.90;;;;;;4947124;28;20055;-71
2023/09/18 06:34:19;;;;;;;15.90;8.82;;;18.90;99.90;;;;;;4920855;28;20057;-71
2023/09/18 06:36:45;;;;;;;15.55;8.98;;;18.90;99.90;;;;;;4946208;28;20047;-72
2023/09/18 06:39:11;;;;;;;18.13;8.45;;;18.90;99.90;;;;;;4918186;28;20055;-70
2023/09/18 06:41:37;;;;;;;15.70;9.13;;;18.90;99.90;;;;;;4950195;28;20422;-71
2023/09/18 06:44:03;;;;;;;17.77;9.63;;;18.90;99.90;;;;;;4918505;28;20054;-72
2023/09/18 06:46:30;;;;;;;16.95;8.63;;;18.90;99.90;;;;;;4952681;28;20051;-71
2023/09/18 06:48:56;;;;;;;22.20;10.20;;;19.00;99.90;;;;;;4917226;28;20051;-72
2023/09/18 06:51:23;;;;;;;17.05;9.35;;;19.00;99.90;;;;;;4945775;28;20051;-71
2023/09/18 06:53:49;;;;;;;18.98;9.80;;;19.00;99.90;;;;;;4896419;28;135898;-71
2023/09/18 06:56:15;;;;;;;16.50;9.65;;;19.00;99.90;;;;;;4950593;28;20505;-71
2023/09/18 06:58:41;;;;;;;16.95;10.30;;;19.00;99.90;;;;;;4907887;28;20051;-70
2023/09/18 07:01:09;;;;;;;17.45;10.60;;;18.90;99.90;;;;;;4937744;28;20066;-71
2023/09/18 07:03:40;;;;;;;21.00;10.70;;;19.00;99.90;;;;;;4909376;28;20086;-71
2023/09/18 07:06:06;;;;;;;18.15;10.73;;;18.90;99.90;;;;;;4948880;28;20055;-71
2023/09/18 07:08:32;;;;;;;21.98;10.98;;;18.90;99.90;;;;;;4916798;28;20051;-72
2023/09/18 07:10:59;;;;;;;49.67;13.30;;;18.90;99.90;;;;;;4947870;28;20063;-74
2023/09/18 07:13:26;;;;;;;23.65;13.02;;;18.80;99.90;;;;;;4910638;28;20051;-74
2023/09/18 07:15:52;;;;;;;26.08;14.05;;;18.60;99.90;;;;;;4943704;28;20564;-74
2023/09/18 07:18:18;;;;;;;53.90;16.42;;;18.40;99.90;;;;;;4909975;28;20047;-72
2023/09/18 07:20:45;;;;;;;22.10;13.48;;;18.30;99.90;;;;;;4956093;28;20285;-72
2023/09/18 07:23:11;;;;;;;57.13;17.17;;;18.20;99.90;;;;;;4923851;28;20043;-71
2023/09/18 07:25:43;;;;;;;39.03;16.90;;;18.20;99.90;;;;;;4959758;28;20413;-72
2023/09/18 07:28:13;;;;;;;28.67;16.15;;;18.10;99.90;;;;;;4911258;28;20046;-72
2023/09/18 07:30:39;;;;;;;38.00;19.65;;;18.10;99.90;;;;;;4944048;28;20070;-71
2023/09/18 07:33:05;;;;;;;30.38;17.65;;;18.10;99.90;;;;;;4908367;28;20039;-72
2023/09/18 07:35:31;;;;;;;32.17;19.50;;;18.10;99.90;;;;;;4943882;28;20429;-71
2023/09/18 07:37:57;;;;;;;30.25;18.52;;;18.10;99.90;;;;;;4910996;28;20048;-71
2023/09/18 07:40:23;;;;;;;37.85;20.52;;;18.10;99.90;;;;;;4957800;28;20054;-71
2023/09/18 07:42:49;;;;;;;32.25;19.05;;;18.00;99.90;;;;;;4925167;28;20052;-70
2023/09/18 07:45:15;;;;;;;29.38;17.67;;;18.10;99.90;;;;;;4942976;28;20066;-71
2023/09/18 07:47:41;;;;;;;31.80;18.30;;;18.10;99.90;;;;;;4924943;28;20066;-70
2023/09/18 07:50:08;;;;;;;31.73;17.90;;;18.10;99.90;;;;;;4957550;28;20067;-71
2023/09/18 07:52:34;;;;;;;29.48;16.73;;;18.10;99.90;;;;;;4936559;28;20525;-70
2023/09/18 07:55:00;;;;;;;32.35;17.65;;;18.10;99.90;;;;;;4915648;28;131774;-69
2023/09/18 07:57:31;;;;;;;27.58;17.73;;;18.10;99.90;;;;;;4950604;28;20054;-70
2023/09/18 07:59:58;;;;;;;31.02;17.95;;;18.10;99.90;;;;;;4926111;28;20046;-69
2023/09/18 08:02:25;;;;;;;32.13;18.45;;;18.10;99.90;;;;;;4948022;28;20043;-70
2023/09/18 08:04:52;;;;;;;32.47;17.92;;;18.20;99.90;;;;;;4919129;28;20537;-71
2023/09/18 08:07:19;;;;;;;30.48;18.58;;;18.10;99.90;;;;;;4949926;28;20059;-69
2023/09/18 08:09:47;;;;;;;38.50;20.05;;;18.10;99.90;;;;;;4913614;28;20066;-70
2023/09/18 08:12:13;;;;;;;31.30;18.27;;;18.10;99.90;;;;;;4948719;28;20055;-70
2023/09/18 08:14:39;;;;;;;35.28;20.00;;;18.20;99.90;;;;;;4924231;28;20109;-70
2023/09/18 08:17:07;;;;;;;28.00;18.30;;;18.10;99.90;;;;;;4946117;28;20058;-70
2023/09/18 08:19:33;;;;;;;32.33;18.27;;;18.10;99.90;;;;;;4923432;28;20054;-70
2023/09/18 08:21:59;;;;;;;31.58;18.67;;;18.20;99.90;;;;;;4949952;28;20047;-70
2023/09/18 08:24:26;;;;;;;32.42;18.70;;;18.20;99.90;;;;;;4898746;28;20066;-70
2023/09/18 08:26:52;;;;;;;32.72;19.08;;;18.10;99.90;;;;;;4948697;28;21184;-68
2023/09/18 08:29:18;;;;;;;37.90;20.35;;;18.20;99.90;;;;;;4923454;28;20603;-70
2023/09/18 08:31:44;;;;;;;31.77;18.40;;;18.20;99.90;;;;;;4952407;28;20039;-70
2023/09/18 08:34:10;;;;;;;35.55;20.00;;;18.20;99.90;;;;;;4922112;28;20051;-70
2023/09/18 08:36:36;;;;;;;30.83;18.60;;;18.20;99.90;;;;;;4946412;28;20059;-70
2023/09/18 08:39:05;;;;;;;28.90;17.42;;;18.30;99.90;;;;;;4921256;28;20054;-70
2023/09/18 08:41:33;;;;;;;32.50;17.48;;;18.30;99.90;;;;;;4944797;28;20051;-70
2023/09/18 08:44:03;;;;;;;28.63;17.55;;;18.40;99.90;;;;;;4916927;28;20066;-70
2023/09/18 08:46:30;;;;;;;29.27;17.33;;;18.40;99.90;;;;;;4929219;29;20062;-70
2023/09/18 08:48:59;;;;;;;27.40;16.45;;;18.50;99.90;;;;;;4905692;28;20051;-70
2023/09/18 08:51:26;;;;;;;31.17;17.90;;;18.50;99.90;;;;;;4951075;28;20055;-70
2023/09/18 08:53:54;;;;;;;29.88;17.05;;;18.50;99.90;;;;;;4910350;28;50414;-70
2023/09/18 08:56:21;;;;;;;27.48;16.65;;;18.50;99.90;;;;;;4951094;28;20055;-70
2023/09/18 08:58:47;;;;;;;29.10;16.50;;;18.40;99.90;;;;;;4912504;28;20047;-70
2023/09/18 09:01:13;;;;;;;28.92;17.58;;;18.50;99.90;;;;;;4947348;28;20047;-70
2023/09/18 09:03:42;;;;;;;37.13;19.13;;;18.50;99.90;;;;;;4911389;28;20043;-70
2023/09/18 09:06:09;;;;;;;29.75;17.52;;;18.50;99.90;;;;;;4957697;28;20051;-69
2023/09/18 09:08:36;;;;;;;34.67;19.25;;;18.40;99.90;;;;;;4912337;28;20055;-69
2023/09/18 09:11:03;;;;;;;28.33;17.17;;;18.40;99.90;;;;;;4938902;28;20055;-70
2023/09/18 09:13:30;;;;;;;31.23;18.88;;;18.50;99.90;;;;;;4908006;28;20078;-69
2023/09/18 09:15:57;;;;;;;33.35;19.25;;;18.50;99.90;;;;;;4956247;28;20059;-69
2023/09/18 09:18:28;;;;;;;33.22;19.27;;;18.50;99.90;;;;;;4913898;28;20817;-69
2023/09/18 09:21:00;;;;;;;31.02;19.65;;;18.50;99.90;;;;;;4958472;28;20055;-69
2023/09/18 09:23:28;;;;;;;31.60;20.10;;;18.70;99.90;;;;;;4916714;28;20058;-69
2023/09/18 09:26:11;;;;;;;30.67;19.23;;;18.70;99.90;;;;;;4955407;28;20047;-70
2023/09/18 09:28:37;;;;;;;37.50;21.30;;;18.80;99.90;;;;;;4909962;28;20846;-70
2023/09/18 09:31:05;;;;;;;35.47;20.55;;;18.90;99.90;;;;;;4946691;28;20066;-70
2023/09/18 09:33:31;;;;;;;33.45;21.45;;;18.80;99.90;;;;;;4915232;28;20058;-69
2023/09/18 09:35:58;;;;;;;34.85;20.55;;;19.00;99.90;;;;;;4951716;28;20051;-69
2023/09/18 09:38:32;;;;;;;32.95;21.02;;;19.00;99.90;;;;;;4913513;28;20054;-69
2023/09/18 09:41:01;;;;;;;32.72;20.63;;;18.90;99.90;;;;;;4955857;28;20525;-70
2023/09/18 09:43:31;;;;;;;37.58;22.08;;;19.00;99.90;;;;;;4910607;28;20054;-69
2023/09/18 09:46:01;;;;;;;30.20;19.92;;;19.10;99.90;;;;;;4939858;28;20055;-69
2023/09/18 09:48:30;;;;;;;38.63;22.93;;;19.00;99.90;;;;;;4912353;28;20097;-70
2023/09/18 09:51:00;;;;;;;32.88;21.42;;;19.10;99.90;;;;;;4952953;28;20777;-69
2023/09/18 09:53:50;;;;;;;32.13;21.05;;;19.20;99.90;;;;;;4902904;28;253926;-70
2023/09/18 09:56:21;;;;;;;31.13;21.53;;;19.40;99.90;;;;;;4953440;28;20059;-67
2023/09/18 09:59:07;;;;;;;30.67;20.63;;;19.40;99.90;;;;;;4917185;28;20315;-69
2023/09/18 10:01:35;;;;;;;30.00;20.90;;;19.50;99.90;;;;;;4940454;28;20059;-68
2023/09/18 10:04:17;;;;;;;31.13;20.45;;;19.50;99.90;;;;;;4912901;28;20144;-69
2023/09/18 10:06:46;;;;;;;33.13;22.10;;;19.70;99.90;;;;;;4942881;28;20058;-69
2023/09/18 10:09:15;;;;;;;28.58;20.67;;;20.30;99.90;;;;;;4918148;28;20042;-69
2023/09/18 10:11:45;;;;;;;27.27;19.30;;;20.30;99.90;;;;;;4946876;28;20055;-69
2023/09/18 10:14:20;;;;;;;24.23;17.52;;;20.10;99.90;;;;;;4909204;28;20059;-69
2023/09/18 10:16:53;;;;;;;19.35;14.98;;;20.10;99.90;;;;;;4941736;28;20062;-69
2023/09/18 10:19:39;;;;;;;20.95;15.68;;;19.80;99.90;;;;;;4909253;28;20098;-70
2023/09/18 10:22:28;;;;;;;19.25;13.52;;;20.00;99.90;;;;;;4944387;28;20517;-69
2023/09/18 10:25:03;;;;;;;20.25;14.23;;;19.80;99.90;;;;;;4905188;28;20055;-69
2023/09/18 10:27:32;;;;;;;19.25;13.32;;;19.90;99.90;;;;;;4962172;28;20051;-68
2023/09/18 10:30:00;;;;;;;19.30;12.18;;;20.20;99.90;;;;;;4897495;28;20055;-68
2023/09/18 10:32:28;;;;;;;16.58;12.00;;;20.40;99.90;;;;;;4944605;28;20094;-70
2023/09/18 10:34:54;;;;;;;16.33;12.57;;;20.50;99.90;;;;;;4922053;28;20643;-69
2023/09/18 10:37:22;;;;;;;16.27;11.07;;;20.80;99.90;;;;;;4938580;28;20054;-69
2023/09/18 10:39:49;;;;;;;14.02;9.73;;;21.20;99.90;;;;;;4912887;28;20437;-69
2023/09/18 10:42:17;;;;;;;16.60;10.93;;;20.90;99.90;;;;;;4947882;28;20058;-69
2023/09/18 10:44:44;;;;;;;13.63;7.95;;;21.80;99.90;;;;;;4924913;28;20057;-70
2023/09/18 10:47:12;;;;;;;12.15;7.63;;;21.40;99.90;;;;;;4944760;28;20059;-69
2023/09/18 10:49:38;;;;;;;14.05;8.80;;;21.30;99.90;;;;;;4903226;28;20062;-70
2023/09/18 10:52:04;;;;;;;12.15;8.27;;;21.80;99.90;;;;;;4948195;28;20452;-68
2023/09/18 10:54:31;;;;;;;12.68;6.72;;;22.10;99.90;;;;;;4907823;28;122881;-70
2023/09/18 10:56:58;;;;;;;12.55;6.93;;;21.90;99.90;;;;;;4944133;28;20066;-69
2023/09/18 10:59:24;;;;;;;12.00;6.00;;;22.00;99.90;;;;;;4921460;28;20050;-69
2023/09/18 11:01:50;;;;;;;11.70;6.15;;;21.60;99.90;;;;;;4950041;28;20051;-69
2023/09/18 11:04:20;;;;;;;13.57;5.85;;;21.40;99.90;;;;;;4917392;28;20556;-70
2023/09/18 11:06:55;;;;;;;9.90;5.10;;;21.20;99.90;;;;;;4948903;28;20438;-70
2023/09/18 11:09:26;;;;;;;10.38;5.10;;;21.00;99.90;;;;;;4919218;28;20047;-70
2023/09/18 11:11:56;;;;;;;;;;;20.90;99.90;;;;;;4948306;28;20051;-70
2023/09/18 11:14:44;;;;;;;10.98;5.30;;;20.70;99.90;;;;;;4919399;28;19926;-70
2023/09/18 11:17:33;;;;;;;11.23;4.82;;;20.70;99.90;;;;;;4942787;28;20047;-70
2023/09/18 11:20:23;;;;;;;9.25;4.45;;;20.90;99.90;;;;;;4886822;28;20047;-70
2023/09/18 11:23:00;;;;;;;10.18;4.28;;;21.20;99.90;;;;;;4908494;28;20052;-72
2023/09/18 11:25:45;;;;;;;10.77;4.38;;;21.50;99.90;;;;;;4943038;28;20060;-70
2023/09/18 11:28:18;;;;;;;9.10;3.83;;;22.00;99.90;;;;;;4915061;28;20087;-71
2023/09/18 11:31:02;;;;;;;8.32;3.95;;;22.70;99.90;;;;;;4962618;28;20066;-71
2023/09/18 11:33:32;;;;;;;11.50;4.10;;;23.20;99.90;;;;;;4920034;28;20077;-71
2023/09/18 11:36:26;;;;;;;10.13;4.38;;;22.80;99.90;;;;;;4953968;28;20047;-71
2023/09/18 11:38:53;;;;;;;8.48;4.13;;;22.10;99.90;;;;;;4915670;28;20058;-71
2023/09/18 11:41:32;;;;;;;12.57;4.50;;;21.90;99.90;;;;;;4951706;28;20058;-71
2023/09/18 11:44:19;;;;;;;9.90;4.47;;;21.70;99.90;;;;;;4908256;28;20506;-70
2023/09/18 11:46:54;;;;;;;10.18;3.97;;;21.50;99.90;;;;;;4948007;28;20058;-71
2023/09/18 11:49:27;;;;;;;9.63;4.22;;;21.30;99.90;;;;;;4921755;28;20058;-70
2023/09/18 11:51:54;;;;;;;11.85;4.50;;;21.30;99.90;;;;;;4948249;28;20131;-73
2023/09/18 11:54:23;;;;;;;10.88;4.30;;;21.70;99.90;;;;;;4892423;28;174870;-71
2023/09/18 11:56:49;;;;;;;8.98;3.67;;;22.60;99.90;;;;;;4949825;28;20043;-71
2023/09/18 11:59:17;;;;;;;9.95;3.80;;;23.30;99.90;;;;;;4925130;28;20265;-71
2023/09/18 12:01:46;;;;;;;11.20;4.32;;;23.90;99.90;;;;;;4951376;28;20142;-70
2023/09/18 12:04:13;;;;;;;9.30;4.25;;;24.30;99.90;;;;;;4920930;28;21054;-71
2023/09/18 12:06:41;;;;;;;9.77;4.03;;;24.10;99.90;;;;;;4955296;28;20047;-71
2023/09/18 12:09:08;;;;;;;12.13;3.75;;;23.70;99.90;;;;;;4922661;28;20069;-71
2023/09/18 12:11:35;;;;;;;10.93;3.85;;;23.70;99.90;;;;;;4951582;28;20494;-71
2023/09/18 12:14:05;;;;;;;10.90;3.92;;;23.60;99.90;;;;;;4911975;28;20054;-70
2023/09/18 12:16:38;;;;;;;10.15;3.88;;;23.60;99.90;;;;;;4946339;28;20058;-70
2023/09/18 12:19:06;;;;;;;9.80;3.50;;;24.00;99.90;;;;;;4910952;28;20708;-71
2023/09/18 12:21:33;;;;;;;10.38;3.70;;;23.90;99.90;;;;;;4942677;29;20090;-70
2023/09/18 12:23:59;;;;;;;10.35;3.65;;;23.50;99.90;;;;;;4893474;28;20047;-71
2023/09/18 12:26:26;;;;;;;9.63;3.72;;;23.20;99.90;;;;;;4952787;28;20050;-69
2023/09/18 12:28:52;;;;;;;9.55;3.45;;;22.90;99.90;;;;;;4922771;28;20046;-71
2023/09/18 12:31:18;;;;;;;9.00;3.85;;;22.80;99.90;;;;;;4956074;28;20465;-71
2023/09/18 12:33:47;;;;;;;10.65;3.92;;;23.00;99.90;;;;;;4914111;28;20055;-71
2023/09/18 12:36:18;;;;;;;10.35;4.00;;;23.10;99.90;;;;;;4947319;28;20055;-71